<?xml version="1.0" encoding="UTF-8" ?>
<gpx version="1.1" xmlns:xsi="http://www.w3.org/2001/XMLSchema-instance" 
    xmlns="http://www.topografix.com/GPX/1/1" 
    xsi:schemaLocation="http://www.topografix.com/GPX/1/1 http://www.topografix.com/GPX/1/1/gpx.xsd" 
    creator="Openrunner - https://www.openrunner.com" >	<trk>
						<name>14968268-Sentier de la Thoranche</name>
						<trkseg>
					<trkpt lat="45.689000" lon="4.352750">
						<ele>552</ele>
						<time>2022-06-15T15:45:23Z</time>
					</trkpt>
					<trkpt lat="45.688940" lon="4.353090">
						<ele>548</ele>
						<time>2022-06-15T15:45:56Z</time>
					</trkpt>
					<trkpt lat="45.688630" lon="4.354390">
						<ele>539</ele>
						<time>2022-06-15T15:48:04Z</time>
					</trkpt>
					<trkpt lat="45.688590" lon="4.354720">
						<ele>540</ele>
						<time>2022-06-15T15:48:35Z</time>
					</trkpt>
					<trkpt lat="45.688550" lon="4.354720">
						<ele>540</ele>
						<time>2022-06-15T15:48:40Z</time>
					</trkpt>
					<trkpt lat="45.688530" lon="4.354750">
						<ele>540</ele>
						<time>2022-06-15T15:48:44Z</time>
					</trkpt>
					<trkpt lat="45.688500" lon="4.354960">
						<ele>541</ele>
						<time>2022-06-15T15:49:04Z</time>
					</trkpt>
					<trkpt lat="45.688510" lon="4.355070">
						<ele>541</ele>
						<time>2022-06-15T15:49:14Z</time>
					</trkpt>
					<trkpt lat="45.688560" lon="4.355130">
						<ele>541</ele>
						<time>2022-06-15T15:49:23Z</time>
					</trkpt>
					<trkpt lat="45.688630" lon="4.355120">
						<ele>540</ele>
						<time>2022-06-15T15:49:33Z</time>
					</trkpt>
					<trkpt lat="45.688650" lon="4.355080">
						<ele>540</ele>
						<time>2022-06-15T15:49:37Z</time>
					</trkpt>
					<trkpt lat="45.688780" lon="4.355190">
						<ele>539</ele>
						<time>2022-06-15T15:49:57Z</time>
					</trkpt>
					<trkpt lat="45.688840" lon="4.355300">
						<ele>539</ele>
						<time>2022-06-15T15:50:10Z</time>
					</trkpt>
					<trkpt lat="45.688900" lon="4.355590">
						<ele>540</ele>
						<time>2022-06-15T15:50:39Z</time>
					</trkpt>
					<trkpt lat="45.688980" lon="4.356170">
						<ele>540</ele>
						<time>2022-06-15T15:51:34Z</time>
					</trkpt>
					<trkpt lat="45.689020" lon="4.356330">
						<ele>540</ele>
						<time>2022-06-15T15:51:49Z</time>
					</trkpt>
					<trkpt lat="45.689120" lon="4.356560">
						<ele>539</ele>
						<time>2022-06-15T15:52:15Z</time>
					</trkpt>
					<trkpt lat="45.689300" lon="4.356750">
						<ele>538</ele>
						<time>2022-06-15T15:52:45Z</time>
					</trkpt>
					<trkpt lat="45.689260" lon="4.356800">
						<ele>539</ele>
						<time>2022-06-15T15:52:52Z</time>
					</trkpt>
					<trkpt lat="45.689090" lon="4.356960">
						<ele>542</ele>
						<time>2022-06-15T15:53:19Z</time>
					</trkpt>
					<trkpt lat="45.688990" lon="4.357100">
						<ele>544</ele>
						<time>2022-06-15T15:53:37Z</time>
					</trkpt>
					<trkpt lat="45.688970" lon="4.357200">
						<ele>545</ele>
						<time>2022-06-15T15:53:47Z</time>
					</trkpt>
					<trkpt lat="45.688980" lon="4.357590">
						<ele>548</ele>
						<time>2022-06-15T15:54:24Z</time>
					</trkpt>
					<trkpt lat="45.689070" lon="4.358400">
						<ele>552</ele>
						<time>2022-06-15T15:55:40Z</time>
					</trkpt>
					<trkpt lat="45.689080" lon="4.358490">
						<ele>552</ele>
						<time>2022-06-15T15:55:49Z</time>
					</trkpt>
					<trkpt lat="45.689040" lon="4.358570">
						<ele>552</ele>
						<time>2022-06-15T15:55:58Z</time>
					</trkpt>
					<trkpt lat="45.688930" lon="4.358690">
						<ele>554</ele>
						<time>2022-06-15T15:56:16Z</time>
					</trkpt>
					<trkpt lat="45.688630" lon="4.358960">
						<ele>558</ele>
						<time>2022-06-15T15:57:03Z</time>
					</trkpt>
					<trkpt lat="45.688460" lon="4.358980">
						<ele>560</ele>
						<time>2022-06-15T15:57:26Z</time>
					</trkpt>
					<trkpt lat="45.687970" lon="4.359100">
						<ele>563</ele>
						<time>2022-06-15T15:58:33Z</time>
					</trkpt>
					<trkpt lat="45.687970" lon="4.359180">
						<ele>563</ele>
						<time>2022-06-15T15:58:40Z</time>
					</trkpt>
					<trkpt lat="45.687960" lon="4.359320">
						<ele>564</ele>
						<time>2022-06-15T15:58:53Z</time>
					</trkpt>
					<trkpt lat="45.687880" lon="4.359440">
						<ele>564</ele>
						<time>2022-06-15T15:59:09Z</time>
					</trkpt>
					<trkpt lat="45.687520" lon="4.360880">
						<ele>567</ele>
						<time>2022-06-15T16:01:31Z</time>
					</trkpt>
					<trkpt lat="45.687530" lon="4.361560">
						<ele>565</ele>
						<time>2022-06-15T16:02:35Z</time>
					</trkpt>
					<trkpt lat="45.687530" lon="4.361820">
						<ele>565</ele>
						<time>2022-06-15T16:02:59Z</time>
					</trkpt>
					<trkpt lat="45.687510" lon="4.361950">
						<ele>565</ele>
						<time>2022-06-15T16:03:11Z</time>
					</trkpt>
					<trkpt lat="45.687500" lon="4.361940">
						<ele>565</ele>
						<time>2022-06-15T16:03:13Z</time>
					</trkpt>
					<trkpt lat="45.687450" lon="4.361930">
						<ele>564</ele>
						<time>2022-06-15T16:03:20Z</time>
					</trkpt>
					<trkpt lat="45.687400" lon="4.361870">
						<ele>564</ele>
						<time>2022-06-15T16:03:28Z</time>
					</trkpt>
					<trkpt lat="45.687150" lon="4.361480">
						<ele>562</ele>
						<time>2022-06-15T16:04:18Z</time>
					</trkpt>
					<trkpt lat="45.687070" lon="4.361420">
						<ele>561</ele>
						<time>2022-06-15T16:04:30Z</time>
					</trkpt>
					<trkpt lat="45.686300" lon="4.361190">
						<ele>554</ele>
						<time>2022-06-15T16:06:15Z</time>
					</trkpt>
					<trkpt lat="45.686170" lon="4.361190">
						<ele>552</ele>
						<time>2022-06-15T16:06:32Z</time>
					</trkpt>
					<trkpt lat="45.685850" lon="4.361140">
						<ele>549</ele>
						<time>2022-06-15T16:07:15Z</time>
					</trkpt>
					<trkpt lat="45.685420" lon="4.361230">
						<ele>542</ele>
						<time>2022-06-15T16:08:13Z</time>
					</trkpt>
					<trkpt lat="45.685320" lon="4.361260">
						<ele>541</ele>
						<time>2022-06-15T16:08:27Z</time>
					</trkpt>
					<trkpt lat="45.685100" lon="4.361280">
						<ele>538</ele>
						<time>2022-06-15T16:08:56Z</time>
					</trkpt>
					<trkpt lat="45.684990" lon="4.361330">
						<ele>536</ele>
						<time>2022-06-15T16:09:11Z</time>
					</trkpt>
					<trkpt lat="45.684580" lon="4.361550">
						<ele>530</ele>
						<time>2022-06-15T16:10:10Z</time>
					</trkpt>
					<trkpt lat="45.684490" lon="4.361640">
						<ele>528</ele>
						<time>2022-06-15T16:10:24Z</time>
					</trkpt>
					<trkpt lat="45.684390" lon="4.361700">
						<ele>527</ele>
						<time>2022-06-15T16:10:39Z</time>
					</trkpt>
					<trkpt lat="45.684300" lon="4.361780">
						<ele>525</ele>
						<time>2022-06-15T16:10:53Z</time>
					</trkpt>
					<trkpt lat="45.683990" lon="4.362240">
						<ele>513</ele>
						<time>2022-06-15T16:11:53Z</time>
					</trkpt>
					<trkpt lat="45.683790" lon="4.362660">
						<ele>505</ele>
						<time>2022-06-15T16:12:40Z</time>
					</trkpt>
					<trkpt lat="45.683750" lon="4.362660">
						<ele>504</ele>
						<time>2022-06-15T16:12:45Z</time>
					</trkpt>
					<trkpt lat="45.683610" lon="4.362530">
						<ele>503</ele>
						<time>2022-06-15T16:13:08Z</time>
					</trkpt>
					<trkpt lat="45.683460" lon="4.362310">
						<ele>503</ele>
						<time>2022-06-15T16:13:36Z</time>
					</trkpt>
					<trkpt lat="45.683310" lon="4.362010">
						<ele>503</ele>
						<time>2022-06-15T16:14:11Z</time>
					</trkpt>
					<trkpt lat="45.683280" lon="4.361990">
						<ele>503</ele>
						<time>2022-06-15T16:14:15Z</time>
					</trkpt>
					<trkpt lat="45.683070" lon="4.362010">
						<ele>500</ele>
						<time>2022-06-15T16:14:43Z</time>
					</trkpt>
					<trkpt lat="45.683070" lon="4.362060">
						<ele>499</ele>
						<time>2022-06-15T16:14:48Z</time>
					</trkpt>
					<trkpt lat="45.683070" lon="4.362300">
						<ele>498</ele>
						<time>2022-06-15T16:15:10Z</time>
					</trkpt>
					<trkpt lat="45.683040" lon="4.362480">
						<ele>496</ele>
						<time>2022-06-15T16:15:27Z</time>
					</trkpt>
					<trkpt lat="45.683080" lon="4.362990">
						<ele>494</ele>
						<time>2022-06-15T16:16:15Z</time>
					</trkpt>
					<trkpt lat="45.683090" lon="4.363250">
						<ele>492</ele>
						<time>2022-06-15T16:16:40Z</time>
					</trkpt>
					<trkpt lat="45.683110" lon="4.363420">
						<ele>491</ele>
						<time>2022-06-15T16:16:56Z</time>
					</trkpt>
					<trkpt lat="45.683150" lon="4.363570">
						<ele>492</ele>
						<time>2022-06-15T16:17:11Z</time>
					</trkpt>
					<trkpt lat="45.683190" lon="4.363660">
						<ele>492</ele>
						<time>2022-06-15T16:17:21Z</time>
					</trkpt>
					<trkpt lat="45.683380" lon="4.363850">
						<ele>492</ele>
						<time>2022-06-15T16:17:52Z</time>
					</trkpt>
					<trkpt lat="45.683490" lon="4.364000">
						<ele>492</ele>
						<time>2022-06-15T16:18:12Z</time>
					</trkpt>
					<trkpt lat="45.683530" lon="4.364180">
						<ele>492</ele>
						<time>2022-06-15T16:18:29Z</time>
					</trkpt>
					<trkpt lat="45.683570" lon="4.364250">
						<ele>493</ele>
						<time>2022-06-15T16:18:38Z</time>
					</trkpt>
					<trkpt lat="45.683690" lon="4.364320">
						<ele>494</ele>
						<time>2022-06-15T16:18:55Z</time>
					</trkpt>
					<trkpt lat="45.683750" lon="4.364410">
						<ele>494</ele>
						<time>2022-06-15T16:19:07Z</time>
					</trkpt>
					<trkpt lat="45.683780" lon="4.364490">
						<ele>494</ele>
						<time>2022-06-15T16:19:15Z</time>
					</trkpt>
					<trkpt lat="45.683850" lon="4.364650">
						<ele>495</ele>
						<time>2022-06-15T16:19:33Z</time>
					</trkpt>
					<trkpt lat="45.683680" lon="4.365120">
						<ele>496</ele>
						<time>2022-06-15T16:20:22Z</time>
					</trkpt>
					<trkpt lat="45.683510" lon="4.365330">
						<ele>497</ele>
						<time>2022-06-15T16:20:52Z</time>
					</trkpt>
					<trkpt lat="45.683230" lon="4.365780">
						<ele>501</ele>
						<time>2022-06-15T16:21:48Z</time>
					</trkpt>
					<trkpt lat="45.683140" lon="4.365870">
						<ele>503</ele>
						<time>2022-06-15T16:22:03Z</time>
					</trkpt>
					<trkpt lat="45.682950" lon="4.365990">
						<ele>506</ele>
						<time>2022-06-15T16:22:31Z</time>
					</trkpt>
					<trkpt lat="45.682670" lon="4.366070">
						<ele>510</ele>
						<time>2022-06-15T16:23:09Z</time>
					</trkpt>
					<trkpt lat="45.682170" lon="4.366010">
						<ele>517</ele>
						<time>2022-06-15T16:24:16Z</time>
					</trkpt>
					<trkpt lat="45.682130" lon="4.366030">
						<ele>518</ele>
						<time>2022-06-15T16:24:21Z</time>
					</trkpt>
					<trkpt lat="45.682100" lon="4.366090">
						<ele>518</ele>
						<time>2022-06-15T16:24:28Z</time>
					</trkpt>
					<trkpt lat="45.682050" lon="4.366470">
						<ele>522</ele>
						<time>2022-06-15T16:25:04Z</time>
					</trkpt>
					<trkpt lat="45.682010" lon="4.366560">
						<ele>523</ele>
						<time>2022-06-15T16:25:14Z</time>
					</trkpt>
					<trkpt lat="45.681960" lon="4.366610">
						<ele>524</ele>
						<time>2022-06-15T16:25:22Z</time>
					</trkpt>
					<trkpt lat="45.681860" lon="4.366650">
						<ele>526</ele>
						<time>2022-06-15T16:25:36Z</time>
					</trkpt>
					<trkpt lat="45.681660" lon="4.366570">
						<ele>529</ele>
						<time>2022-06-15T16:26:04Z</time>
					</trkpt>
					<trkpt lat="45.681420" lon="4.366410">
						<ele>532</ele>
						<time>2022-06-15T16:26:39Z</time>
					</trkpt>
					<trkpt lat="45.680950" lon="4.366150">
						<ele>539</ele>
						<time>2022-06-15T16:27:47Z</time>
					</trkpt>
					<trkpt lat="45.680360" lon="4.365660">
						<ele>547</ele>
						<time>2022-06-15T16:29:18Z</time>
					</trkpt>
					<trkpt lat="45.680140" lon="4.365520">
						<ele>549</ele>
						<time>2022-06-15T16:29:50Z</time>
					</trkpt>
					<trkpt lat="45.679910" lon="4.365450">
						<ele>551</ele>
						<time>2022-06-15T16:30:21Z</time>
					</trkpt>
					<trkpt lat="45.679630" lon="4.365430">
						<ele>553</ele>
						<time>2022-06-15T16:30:58Z</time>
					</trkpt>
					<trkpt lat="45.679380" lon="4.365460">
						<ele>554</ele>
						<time>2022-06-15T16:31:32Z</time>
					</trkpt>
					<trkpt lat="45.679110" lon="4.365580">
						<ele>557</ele>
						<time>2022-06-15T16:32:10Z</time>
					</trkpt>
					<trkpt lat="45.678840" lon="4.365790">
						<ele>559</ele>
						<time>2022-06-15T16:32:51Z</time>
					</trkpt>
					<trkpt lat="45.678630" lon="4.365870">
						<ele>559</ele>
						<time>2022-06-15T16:33:20Z</time>
					</trkpt>
					<trkpt lat="45.678530" lon="4.365950">
						<ele>559</ele>
						<time>2022-06-15T16:33:35Z</time>
					</trkpt>
					<trkpt lat="45.678390" lon="4.366020">
						<ele>560</ele>
						<time>2022-06-15T16:33:55Z</time>
					</trkpt>
					<trkpt lat="45.678080" lon="4.366090">
						<ele>560</ele>
						<time>2022-06-15T16:34:37Z</time>
					</trkpt>
					<trkpt lat="45.677720" lon="4.366160">
						<ele>560</ele>
						<time>2022-06-15T16:35:25Z</time>
					</trkpt>
					<trkpt lat="45.677530" lon="4.366230">
						<ele>560</ele>
						<time>2022-06-15T16:35:51Z</time>
					</trkpt>
					<trkpt lat="45.676870" lon="4.366920">
						<ele>564</ele>
						<time>2022-06-15T16:37:40Z</time>
					</trkpt>
					<trkpt lat="45.676780" lon="4.367000">
						<ele>564</ele>
						<time>2022-06-15T16:37:55Z</time>
					</trkpt>
					<trkpt lat="45.676430" lon="4.367230">
						<ele>566</ele>
						<time>2022-06-15T16:38:46Z</time>
					</trkpt>
					<trkpt lat="45.676150" lon="4.367370">
						<ele>567</ele>
						<time>2022-06-15T16:39:25Z</time>
					</trkpt>
					<trkpt lat="45.675210" lon="4.367540">
						<ele>567</ele>
						<time>2022-06-15T16:41:32Z</time>
					</trkpt>
					<trkpt lat="45.674640" lon="4.367820">
						<ele>571</ele>
						<time>2022-06-15T16:42:52Z</time>
					</trkpt>
					<trkpt lat="45.674430" lon="4.367770">
						<ele>571</ele>
						<time>2022-06-15T16:43:21Z</time>
					</trkpt>
					<trkpt lat="45.674260" lon="4.367800">
						<ele>571</ele>
						<time>2022-06-15T16:43:44Z</time>
					</trkpt>
					<trkpt lat="45.674070" lon="4.368000">
						<ele>573</ele>
						<time>2022-06-15T16:44:15Z</time>
					</trkpt>
					<trkpt lat="45.674010" lon="4.368000">
						<ele>574</ele>
						<time>2022-06-15T16:44:23Z</time>
					</trkpt>
					<trkpt lat="45.673880" lon="4.367670">
						<ele>574</ele>
						<time>2022-06-15T16:44:58Z</time>
					</trkpt>
					<trkpt lat="45.673780" lon="4.367440">
						<ele>575</ele>
						<time>2022-06-15T16:45:24Z</time>
					</trkpt>
					<trkpt lat="45.673710" lon="4.367350">
						<ele>576</ele>
						<time>2022-06-15T16:45:36Z</time>
					</trkpt>
					<trkpt lat="45.673670" lon="4.367330">
						<ele>577</ele>
						<time>2022-06-15T16:45:42Z</time>
					</trkpt>
					<trkpt lat="45.673610" lon="4.367360">
						<ele>578</ele>
						<time>2022-06-15T16:45:50Z</time>
					</trkpt>
					<trkpt lat="45.673530" lon="4.367540">
						<ele>578</ele>
						<time>2022-06-15T16:46:10Z</time>
					</trkpt>
					<trkpt lat="45.673230" lon="4.367880">
						<ele>584</ele>
						<time>2022-06-15T16:47:01Z</time>
					</trkpt>
					<trkpt lat="45.672970" lon="4.368140">
						<ele>589</ele>
						<time>2022-06-15T16:47:44Z</time>
					</trkpt>
					<trkpt lat="45.672820" lon="4.368250">
						<ele>592</ele>
						<time>2022-06-15T16:48:06Z</time>
					</trkpt>
					<trkpt lat="45.672720" lon="4.368410">
						<ele>595</ele>
						<time>2022-06-15T16:48:26Z</time>
					</trkpt>
					<trkpt lat="45.672650" lon="4.368570">
						<ele>597</ele>
						<time>2022-06-15T16:48:44Z</time>
					</trkpt>
					<trkpt lat="45.672620" lon="4.368690">
						<ele>598</ele>
						<time>2022-06-15T16:48:56Z</time>
					</trkpt>
					<trkpt lat="45.672550" lon="4.369400">
						<ele>603</ele>
						<time>2022-06-15T16:50:02Z</time>
					</trkpt>
					<trkpt lat="45.672500" lon="4.369630">
						<ele>605</ele>
						<time>2022-06-15T16:50:25Z</time>
					</trkpt>
					<trkpt lat="45.672440" lon="4.369760">
						<ele>606</ele>
						<time>2022-06-15T16:50:39Z</time>
					</trkpt>
					<trkpt lat="45.672170" lon="4.369950">
						<ele>607</ele>
						<time>2022-06-15T16:51:20Z</time>
					</trkpt>
					<trkpt lat="45.671970" lon="4.370060">
						<ele>608</ele>
						<time>2022-06-15T16:51:48Z</time>
					</trkpt>
					<trkpt lat="45.671940" lon="4.370070">
						<ele>608</ele>
						<time>2022-06-15T16:51:52Z</time>
					</trkpt>
					<trkpt lat="45.671970" lon="4.370060">
						<ele>608</ele>
						<time>2022-06-15T16:51:56Z</time>
					</trkpt>
					<trkpt lat="45.671900" lon="4.369710">
						<ele>607</ele>
						<time>2022-06-15T16:52:30Z</time>
					</trkpt>
					<trkpt lat="45.671810" lon="4.369410">
						<ele>607</ele>
						<time>2022-06-15T16:53:01Z</time>
					</trkpt>
					<trkpt lat="45.671700" lon="4.369170">
						<ele>608</ele>
						<time>2022-06-15T16:53:28Z</time>
					</trkpt>
					<trkpt lat="45.671590" lon="4.368590">
						<ele>606</ele>
						<time>2022-06-15T16:54:24Z</time>
					</trkpt>
					<trkpt lat="45.671390" lon="4.367420">
						<ele>605</ele>
						<time>2022-06-15T16:56:16Z</time>
					</trkpt>
					<trkpt lat="45.671210" lon="4.366060">
						<ele>613</ele>
						<time>2022-06-15T16:58:25Z</time>
					</trkpt>
					<trkpt lat="45.671200" lon="4.365960">
						<ele>614</ele>
						<time>2022-06-15T16:58:34Z</time>
					</trkpt>
					<trkpt lat="45.671220" lon="4.365900">
						<ele>614</ele>
						<time>2022-06-15T16:58:41Z</time>
					</trkpt>
					<trkpt lat="45.671190" lon="4.365660">
						<ele>616</ele>
						<time>2022-06-15T16:59:03Z</time>
					</trkpt>
					<trkpt lat="45.670860" lon="4.363520">
						<ele>625</ele>
						<time>2022-06-15T17:02:28Z</time>
					</trkpt>
					<trkpt lat="45.670730" lon="4.362930">
						<ele>630</ele>
						<time>2022-06-15T17:03:25Z</time>
					</trkpt>
					<trkpt lat="45.670690" lon="4.362650">
						<ele>631</ele>
						<time>2022-06-15T17:03:52Z</time>
					</trkpt>
					<trkpt lat="45.670760" lon="4.361940">
						<ele>631</ele>
						<time>2022-06-15T17:04:59Z</time>
					</trkpt>
					<trkpt lat="45.670770" lon="4.361660">
						<ele>631</ele>
						<time>2022-06-15T17:05:25Z</time>
					</trkpt>
					<trkpt lat="45.670750" lon="4.361420">
						<ele>630</ele>
						<time>2022-06-15T17:05:48Z</time>
					</trkpt>
					<trkpt lat="45.670080" lon="4.359880">
						<ele>636</ele>
						<time>2022-06-15T17:08:37Z</time>
					</trkpt>
					<trkpt lat="45.669810" lon="4.359310">
						<ele>641</ele>
						<time>2022-06-15T17:09:41Z</time>
					</trkpt>
					<trkpt lat="45.669790" lon="4.358170">
						<ele>643</ele>
						<time>2022-06-15T17:11:27Z</time>
					</trkpt>
					<trkpt lat="45.669750" lon="4.357850">
						<ele>643</ele>
						<time>2022-06-15T17:11:58Z</time>
					</trkpt>
					<trkpt lat="45.669700" lon="4.357730">
						<ele>644</ele>
						<time>2022-06-15T17:12:11Z</time>
					</trkpt>
					<trkpt lat="45.669250" lon="4.356920">
						<ele>647</ele>
						<time>2022-06-15T17:13:47Z</time>
					</trkpt>
					<trkpt lat="45.669140" lon="4.356600">
						<ele>646</ele>
						<time>2022-06-15T17:14:20Z</time>
					</trkpt>
					<trkpt lat="45.669130" lon="4.356330">
						<ele>645</ele>
						<time>2022-06-15T17:14:46Z</time>
					</trkpt>
					<trkpt lat="45.669070" lon="4.356020">
						<ele>644</ele>
						<time>2022-06-15T17:15:16Z</time>
					</trkpt>
					<trkpt lat="45.669040" lon="4.355970">
						<ele>644</ele>
						<time>2022-06-15T17:15:22Z</time>
					</trkpt>
					<trkpt lat="45.668910" lon="4.355290">
						<ele>645</ele>
						<time>2022-06-15T17:16:28Z</time>
					</trkpt>
					<trkpt lat="45.668730" lon="4.354550">
						<ele>645</ele>
						<time>2022-06-15T17:17:41Z</time>
					</trkpt>
					<trkpt lat="45.668700" lon="4.354140">
						<ele>643</ele>
						<time>2022-06-15T17:18:19Z</time>
					</trkpt>
					<trkpt lat="45.668560" lon="4.353360">
						<ele>640</ele>
						<time>2022-06-15T17:19:34Z</time>
					</trkpt>
					<trkpt lat="45.668380" lon="4.352550">
						<ele>635</ele>
						<time>2022-06-15T17:20:53Z</time>
					</trkpt>
					<trkpt lat="45.668150" lon="4.351170">
						<ele>631</ele>
						<time>2022-06-15T17:23:06Z</time>
					</trkpt>
					<trkpt lat="45.668010" lon="4.350620">
						<ele>628</ele>
						<time>2022-06-15T17:24:00Z</time>
					</trkpt>
					<trkpt lat="45.668000" lon="4.350580">
						<ele>628</ele>
						<time>2022-06-15T17:24:04Z</time>
					</trkpt>
					<trkpt lat="45.668020" lon="4.350510">
						<ele>628</ele>
						<time>2022-06-15T17:24:11Z</time>
					</trkpt>
					<trkpt lat="45.668580" lon="4.350300">
						<ele>626</ele>
						<time>2022-06-15T17:25:29Z</time>
					</trkpt>
					<trkpt lat="45.669170" lon="4.350170">
						<ele>623</ele>
						<time>2022-06-15T17:26:48Z</time>
					</trkpt>
					<trkpt lat="45.669260" lon="4.350120">
						<ele>622</ele>
						<time>2022-06-15T17:27:01Z</time>
					</trkpt>
					<trkpt lat="45.669340" lon="4.350120">
						<ele>622</ele>
						<time>2022-06-15T17:27:12Z</time>
					</trkpt>
					<trkpt lat="45.670210" lon="4.349760">
						<ele>615</ele>
						<time>2022-06-15T17:29:13Z</time>
					</trkpt>
					<trkpt lat="45.670660" lon="4.349620">
						<ele>611</ele>
						<time>2022-06-15T17:30:14Z</time>
					</trkpt>
					<trkpt lat="45.670830" lon="4.349590">
						<ele>610</ele>
						<time>2022-06-15T17:30:37Z</time>
					</trkpt>
					<trkpt lat="45.671060" lon="4.349570">
						<ele>610</ele>
						<time>2022-06-15T17:31:08Z</time>
					</trkpt>
					<trkpt lat="45.671490" lon="4.349620">
						<ele>609</ele>
						<time>2022-06-15T17:32:05Z</time>
					</trkpt>
					<trkpt lat="45.671620" lon="4.349610">
						<ele>609</ele>
						<time>2022-06-15T17:32:23Z</time>
					</trkpt>
					<trkpt lat="45.671760" lon="4.349560">
						<ele>608</ele>
						<time>2022-06-15T17:32:42Z</time>
					</trkpt>
					<trkpt lat="45.671920" lon="4.349440">
						<ele>607</ele>
						<time>2022-06-15T17:33:06Z</time>
					</trkpt>
					<trkpt lat="45.672250" lon="4.349060">
						<ele>606</ele>
						<time>2022-06-15T17:34:03Z</time>
					</trkpt>
					<trkpt lat="45.672800" lon="4.348590">
						<ele>604</ele>
						<time>2022-06-15T17:35:28Z</time>
					</trkpt>
					<trkpt lat="45.673050" lon="4.348320">
						<ele>603</ele>
						<time>2022-06-15T17:36:10Z</time>
					</trkpt>
					<trkpt lat="45.673150" lon="4.348240">
						<ele>603</ele>
						<time>2022-06-15T17:36:25Z</time>
					</trkpt>
					<trkpt lat="45.673360" lon="4.348120">
						<ele>602</ele>
						<time>2022-06-15T17:36:55Z</time>
					</trkpt>
					<trkpt lat="45.673500" lon="4.348070">
						<ele>601</ele>
						<time>2022-06-15T17:37:15Z</time>
					</trkpt>
					<trkpt lat="45.673760" lon="4.348030">
						<ele>600</ele>
						<time>2022-06-15T17:37:49Z</time>
					</trkpt>
					<trkpt lat="45.674750" lon="4.348050">
						<ele>596</ele>
						<time>2022-06-15T17:40:02Z</time>
					</trkpt>
					<trkpt lat="45.674800" lon="4.348050">
						<ele>596</ele>
						<time>2022-06-15T17:40:08Z</time>
					</trkpt>
					<trkpt lat="45.674730" lon="4.347700">
						<ele>597</ele>
						<time>2022-06-15T17:40:42Z</time>
					</trkpt>
					<trkpt lat="45.674430" lon="4.346670">
						<ele>598</ele>
						<time>2022-06-15T17:42:26Z</time>
					</trkpt>
					<trkpt lat="45.674370" lon="4.346370">
						<ele>598</ele>
						<time>2022-06-15T17:42:55Z</time>
					</trkpt>
					<trkpt lat="45.674280" lon="4.345520">
						<ele>596</ele>
						<time>2022-06-15T17:44:15Z</time>
					</trkpt>
					<trkpt lat="45.674140" lon="4.344710">
						<ele>594</ele>
						<time>2022-06-15T17:45:33Z</time>
					</trkpt>
					<trkpt lat="45.674110" lon="4.344350">
						<ele>592</ele>
						<time>2022-06-15T17:46:07Z</time>
					</trkpt>
					<trkpt lat="45.674110" lon="4.344050">
						<ele>590</ele>
						<time>2022-06-15T17:46:35Z</time>
					</trkpt>
					<trkpt lat="45.674140" lon="4.343820">
						<ele>589</ele>
						<time>2022-06-15T17:46:57Z</time>
					</trkpt>
					<trkpt lat="45.674140" lon="4.343590">
						<ele>588</ele>
						<time>2022-06-15T17:47:18Z</time>
					</trkpt>
					<trkpt lat="45.674070" lon="4.343280">
						<ele>586</ele>
						<time>2022-06-15T17:47:49Z</time>
					</trkpt>
					<trkpt lat="45.674020" lon="4.342650">
						<ele>583</ele>
						<time>2022-06-15T17:48:48Z</time>
					</trkpt>
					<trkpt lat="45.674010" lon="4.342170">
						<ele>581</ele>
						<time>2022-06-15T17:49:33Z</time>
					</trkpt>
					<trkpt lat="45.674020" lon="4.341940">
						<ele>579</ele>
						<time>2022-06-15T17:49:54Z</time>
					</trkpt>
					<trkpt lat="45.674070" lon="4.341460">
						<ele>577</ele>
						<time>2022-06-15T17:50:39Z</time>
					</trkpt>
					<trkpt lat="45.674070" lon="4.341340">
						<ele>576</ele>
						<time>2022-06-15T17:50:51Z</time>
					</trkpt>
					<trkpt lat="45.674040" lon="4.341250">
						<ele>576</ele>
						<time>2022-06-15T17:51:00Z</time>
					</trkpt>
					<trkpt lat="45.674080" lon="4.340910">
						<ele>574</ele>
						<time>2022-06-15T17:51:32Z</time>
					</trkpt>
					<trkpt lat="45.674070" lon="4.340580">
						<ele>573</ele>
						<time>2022-06-15T17:52:03Z</time>
					</trkpt>
					<trkpt lat="45.674030" lon="4.340170">
						<ele>572</ele>
						<time>2022-06-15T17:52:41Z</time>
					</trkpt>
					<trkpt lat="45.673950" lon="4.339780">
						<ele>571</ele>
						<time>2022-06-15T17:53:19Z</time>
					</trkpt>
					<trkpt lat="45.673850" lon="4.339430">
						<ele>570</ele>
						<time>2022-06-15T17:53:55Z</time>
					</trkpt>
					<trkpt lat="45.673770" lon="4.339200">
						<ele>570</ele>
						<time>2022-06-15T17:54:18Z</time>
					</trkpt>
					<trkpt lat="45.673550" lon="4.338790">
						<ele>569</ele>
						<time>2022-06-15T17:55:07Z</time>
					</trkpt>
					<trkpt lat="45.672780" lon="4.336770">
						<ele>561</ele>
						<time>2022-06-15T17:58:41Z</time>
					</trkpt>
					<trkpt lat="45.672710" lon="4.336500">
						<ele>560</ele>
						<time>2022-06-15T17:59:08Z</time>
					</trkpt>
					<trkpt lat="45.672680" lon="4.336410">
						<ele>560</ele>
						<time>2022-06-15T17:59:17Z</time>
					</trkpt>
					<trkpt lat="45.672710" lon="4.336500">
						<ele>560</ele>
						<time>2022-06-15T17:59:27Z</time>
					</trkpt>
					<trkpt lat="45.672700" lon="4.336330">
						<ele>560</ele>
						<time>2022-06-15T17:59:43Z</time>
					</trkpt>
					<trkpt lat="45.672740" lon="4.335840">
						<ele>558</ele>
						<time>2022-06-15T18:00:29Z</time>
					</trkpt>
					<trkpt lat="45.672790" lon="4.335620">
						<ele>558</ele>
						<time>2022-06-15T18:00:50Z</time>
					</trkpt>
					<trkpt lat="45.672830" lon="4.335210">
						<ele>558</ele>
						<time>2022-06-15T18:01:29Z</time>
					</trkpt>
					<trkpt lat="45.672830" lon="4.334540">
						<ele>557</ele>
						<time>2022-06-15T18:02:31Z</time>
					</trkpt>
					<trkpt lat="45.672860" lon="4.334060">
						<ele>555</ele>
						<time>2022-06-15T18:03:16Z</time>
					</trkpt>
					<trkpt lat="45.672860" lon="4.333630">
						<ele>554</ele>
						<time>2022-06-15T18:03:56Z</time>
					</trkpt>
					<trkpt lat="45.672840" lon="4.333150">
						<ele>553</ele>
						<time>2022-06-15T18:04:41Z</time>
					</trkpt>
					<trkpt lat="45.672860" lon="4.332870">
						<ele>551</ele>
						<time>2022-06-15T18:05:07Z</time>
					</trkpt>
					<trkpt lat="45.672910" lon="4.332560">
						<ele>549</ele>
						<time>2022-06-15T18:05:37Z</time>
					</trkpt>
					<trkpt lat="45.672980" lon="4.332300">
						<ele>547</ele>
						<time>2022-06-15T18:06:03Z</time>
					</trkpt>
					<trkpt lat="45.673050" lon="4.332100">
						<ele>546</ele>
						<time>2022-06-15T18:06:24Z</time>
					</trkpt>
					<trkpt lat="45.673140" lon="4.331850">
						<ele>545</ele>
						<time>2022-06-15T18:06:50Z</time>
					</trkpt>
					<trkpt lat="45.673240" lon="4.331680">
						<ele>543</ele>
						<time>2022-06-15T18:07:11Z</time>
					</trkpt>
					<trkpt lat="45.673320" lon="4.331210">
						<ele>539</ele>
						<time>2022-06-15T18:07:56Z</time>
					</trkpt>
					<trkpt lat="45.673340" lon="4.330910">
						<ele>537</ele>
						<time>2022-06-15T18:08:24Z</time>
					</trkpt>
					<trkpt lat="45.673270" lon="4.329870">
						<ele>535</ele>
						<time>2022-06-15T18:10:01Z</time>
					</trkpt>
					<trkpt lat="45.673270" lon="4.329400">
						<ele>535</ele>
						<time>2022-06-15T18:10:45Z</time>
					</trkpt>
					<trkpt lat="45.673410" lon="4.328860">
						<ele>532</ele>
						<time>2022-06-15T18:11:39Z</time>
					</trkpt>
					<trkpt lat="45.673530" lon="4.327730">
						<ele>526</ele>
						<time>2022-06-15T18:13:26Z</time>
					</trkpt>
					<trkpt lat="45.673580" lon="4.327400">
						<ele>525</ele>
						<time>2022-06-15T18:13:57Z</time>
					</trkpt>
					<trkpt lat="45.673660" lon="4.327130">
						<ele>523</ele>
						<time>2022-06-15T18:14:24Z</time>
					</trkpt>
					<trkpt lat="45.673770" lon="4.326900">
						<ele>522</ele>
						<time>2022-06-15T18:14:50Z</time>
					</trkpt>
					<trkpt lat="45.673890" lon="4.326700">
						<ele>521</ele>
						<time>2022-06-15T18:15:15Z</time>
					</trkpt>
					<trkpt lat="45.674240" lon="4.325980">
						<ele>517</ele>
						<time>2022-06-15T18:16:37Z</time>
					</trkpt>
					<trkpt lat="45.674730" lon="4.325360">
						<ele>507</ele>
						<time>2022-06-15T18:18:04Z</time>
					</trkpt>
					<trkpt lat="45.675590" lon="4.324540">
						<ele>505</ele>
						<time>2022-06-15T18:20:22Z</time>
					</trkpt>
					<trkpt lat="45.675700" lon="4.324410">
						<ele>506</ele>
						<time>2022-06-15T18:20:41Z</time>
					</trkpt>
					<trkpt lat="45.675770" lon="4.324340">
						<ele>506</ele>
						<time>2022-06-15T18:20:52Z</time>
					</trkpt>
					<trkpt lat="45.675530" lon="4.323990">
						<ele>504</ele>
						<time>2022-06-15T18:21:38Z</time>
					</trkpt>
					<trkpt lat="45.675340" lon="4.323760">
						<ele>500</ele>
						<time>2022-06-15T18:22:11Z</time>
					</trkpt>
					<trkpt lat="45.675170" lon="4.323510">
						<ele>495</ele>
						<time>2022-06-15T18:22:44Z</time>
					</trkpt>
					<trkpt lat="45.675040" lon="4.323360">
						<ele>491</ele>
						<time>2022-06-15T18:23:06Z</time>
					</trkpt>
					<trkpt lat="45.674860" lon="4.323080">
						<ele>484</ele>
						<time>2022-06-15T18:23:42Z</time>
					</trkpt>
					<trkpt lat="45.675060" lon="4.322820">
						<ele>484</ele>
						<time>2022-06-15T18:24:18Z</time>
					</trkpt>
					<trkpt lat="45.675520" lon="4.322150">
						<ele>483</ele>
						<time>2022-06-15T18:25:45Z</time>
					</trkpt>
					<trkpt lat="45.675920" lon="4.321720">
						<ele>481</ele>
						<time>2022-06-15T18:26:52Z</time>
					</trkpt>
					<trkpt lat="45.676140" lon="4.321540">
						<ele>477</ele>
						<time>2022-06-15T18:27:26Z</time>
					</trkpt>
					<trkpt lat="45.676730" lon="4.321410">
						<ele>473</ele>
						<time>2022-06-15T18:28:45Z</time>
					</trkpt>
					<trkpt lat="45.676440" lon="4.320900">
						<ele>464</ele>
						<time>2022-06-15T18:29:47Z</time>
					</trkpt>
					<trkpt lat="45.675910" lon="4.320260">
						<ele>455</ele>
						<time>2022-06-15T18:31:19Z</time>
					</trkpt>
					<trkpt lat="45.675780" lon="4.320140">
						<ele>453</ele>
						<time>2022-06-15T18:31:40Z</time>
					</trkpt>
					<trkpt lat="45.675480" lon="4.320120">
						<ele>452</ele>
						<time>2022-06-15T18:32:20Z</time>
					</trkpt>
					<trkpt lat="45.675280" lon="4.320140">
						<ele>452</ele>
						<time>2022-06-15T18:32:47Z</time>
					</trkpt>
					<trkpt lat="45.674890" lon="4.320330">
						<ele>453</ele>
						<time>2022-06-15T18:33:42Z</time>
					</trkpt>
					<trkpt lat="45.674620" lon="4.320410">
						<ele>455</ele>
						<time>2022-06-15T18:34:19Z</time>
					</trkpt>
					<trkpt lat="45.674640" lon="4.320330">
						<ele>455</ele>
						<time>2022-06-15T18:34:26Z</time>
					</trkpt>
					<trkpt lat="45.674730" lon="4.320170">
						<ele>453</ele>
						<time>2022-06-15T18:34:46Z</time>
					</trkpt>
					<trkpt lat="45.675240" lon="4.319730">
						<ele>453</ele>
						<time>2022-06-15T18:36:05Z</time>
					</trkpt>
					<trkpt lat="45.675370" lon="4.319550">
						<ele>454</ele>
						<time>2022-06-15T18:36:29Z</time>
					</trkpt>
					<trkpt lat="45.675570" lon="4.319430">
						<ele>452</ele>
						<time>2022-06-15T18:36:58Z</time>
					</trkpt>
					<trkpt lat="45.675810" lon="4.319360">
						<ele>449</ele>
						<time>2022-06-15T18:37:31Z</time>
					</trkpt>
					<trkpt lat="45.676050" lon="4.319400">
						<ele>446</ele>
						<time>2022-06-15T18:38:03Z</time>
					</trkpt>
					<trkpt lat="45.676410" lon="4.319610">
						<ele>442</ele>
						<time>2022-06-15T18:38:55Z</time>
					</trkpt>
					<trkpt lat="45.676490" lon="4.319630">
						<ele>442</ele>
						<time>2022-06-15T18:39:06Z</time>
					</trkpt>
					<trkpt lat="45.676760" lon="4.319550">
						<ele>439</ele>
						<time>2022-06-15T18:39:43Z</time>
					</trkpt>
					<trkpt lat="45.676990" lon="4.319540">
						<ele>439</ele>
						<time>2022-06-15T18:40:13Z</time>
					</trkpt>
					<trkpt lat="45.677090" lon="4.319470">
						<ele>440</ele>
						<time>2022-06-15T18:40:28Z</time>
					</trkpt>
					<trkpt lat="45.677130" lon="4.319390">
						<ele>440</ele>
						<time>2022-06-15T18:40:37Z</time>
					</trkpt>
					<trkpt lat="45.677150" lon="4.319200">
						<ele>441</ele>
						<time>2022-06-15T18:40:55Z</time>
					</trkpt>
					<trkpt lat="45.677740" lon="4.319770">
						<ele>443</ele>
						<time>2022-06-15T18:42:30Z</time>
					</trkpt>
					<trkpt lat="45.678360" lon="4.320740">
						<ele>439</ele>
						<time>2022-06-15T18:44:33Z</time>
					</trkpt>
					<trkpt lat="45.678900" lon="4.320970">
						<ele>443</ele>
						<time>2022-06-15T18:45:48Z</time>
					</trkpt>
					<trkpt lat="45.679530" lon="4.321370">
						<ele>446</ele>
						<time>2022-06-15T18:47:20Z</time>
					</trkpt>
					<trkpt lat="45.679490" lon="4.321200">
						<ele>449</ele>
						<time>2022-06-15T18:47:37Z</time>
					</trkpt>
					<trkpt lat="45.679340" lon="4.320770">
						<ele>454</ele>
						<time>2022-06-15T18:48:22Z</time>
					</trkpt>
					<trkpt lat="45.678950" lon="4.319930">
						<ele>467</ele>
						<time>2022-06-15T18:49:56Z</time>
					</trkpt>
					<trkpt lat="45.678740" lon="4.319670">
						<ele>469</ele>
						<time>2022-06-15T18:50:33Z</time>
					</trkpt>
					<trkpt lat="45.678200" lon="4.319230">
						<ele>467</ele>
						<time>2022-06-15T18:51:56Z</time>
					</trkpt>
					<trkpt lat="45.678100" lon="4.319050">
						<ele>467</ele>
						<time>2022-06-15T18:52:17Z</time>
					</trkpt>
					<trkpt lat="45.678040" lon="4.318740">
						<ele>469</ele>
						<time>2022-06-15T18:52:47Z</time>
					</trkpt>
					<trkpt lat="45.678130" lon="4.317990">
						<ele>472</ele>
						<time>2022-06-15T18:53:58Z</time>
					</trkpt>
					<trkpt lat="45.678290" lon="4.317790">
						<ele>473</ele>
						<time>2022-06-15T18:54:26Z</time>
					</trkpt>
					<trkpt lat="45.678530" lon="4.317720">
						<ele>474</ele>
						<time>2022-06-15T18:54:59Z</time>
					</trkpt>
					<trkpt lat="45.678890" lon="4.317700">
						<ele>477</ele>
						<time>2022-06-15T18:55:47Z</time>
					</trkpt>
					<trkpt lat="45.679390" lon="4.317800">
						<ele>482</ele>
						<time>2022-06-15T18:56:54Z</time>
					</trkpt>
					<trkpt lat="45.679610" lon="4.317800">
						<ele>483</ele>
						<time>2022-06-15T18:57:24Z</time>
					</trkpt>
					<trkpt lat="45.679820" lon="4.317770">
						<ele>484</ele>
						<time>2022-06-15T18:57:52Z</time>
					</trkpt>
					<trkpt lat="45.680370" lon="4.317530">
						<ele>484</ele>
						<time>2022-06-15T18:59:09Z</time>
					</trkpt>
					<trkpt lat="45.680620" lon="4.317480">
						<ele>486</ele>
						<time>2022-06-15T18:59:42Z</time>
					</trkpt>
					<trkpt lat="45.681140" lon="4.317580">
						<ele>491</ele>
						<time>2022-06-15T19:00:52Z</time>
					</trkpt>
					<trkpt lat="45.681320" lon="4.317690">
						<ele>494</ele>
						<time>2022-06-15T19:01:18Z</time>
					</trkpt>
					<trkpt lat="45.681840" lon="4.318070">
						<ele>501</ele>
						<time>2022-06-15T19:02:36Z</time>
					</trkpt>
					<trkpt lat="45.681970" lon="4.318090">
						<ele>501</ele>
						<time>2022-06-15T19:02:54Z</time>
					</trkpt>
					<trkpt lat="45.682430" lon="4.317970">
						<ele>501</ele>
						<time>2022-06-15T19:03:56Z</time>
					</trkpt>
					<trkpt lat="45.682430" lon="4.317960">
						<ele>501</ele>
						<time>2022-06-15T19:03:57Z</time>
					</trkpt>
					<trkpt lat="45.682480" lon="4.318190">
						<ele>503</ele>
						<time>2022-06-15T19:04:20Z</time>
					</trkpt>
					<trkpt lat="45.682550" lon="4.318400">
						<ele>505</ele>
						<time>2022-06-15T19:04:41Z</time>
					</trkpt>
					<trkpt lat="45.682990" lon="4.318830">
						<ele>508</ele>
						<time>2022-06-15T19:05:52Z</time>
					</trkpt>
					<trkpt lat="45.683250" lon="4.319440">
						<ele>508</ele>
						<time>2022-06-15T19:06:59Z</time>
					</trkpt>
					<trkpt lat="45.683320" lon="4.319570">
						<ele>508</ele>
						<time>2022-06-15T19:07:14Z</time>
					</trkpt>
					<trkpt lat="45.683440" lon="4.319690">
						<ele>507</ele>
						<time>2022-06-15T19:07:34Z</time>
					</trkpt>
					<trkpt lat="45.683540" lon="4.319750">
						<ele>507</ele>
						<time>2022-06-15T19:07:48Z</time>
					</trkpt>
					<trkpt lat="45.684310" lon="4.319910">
						<ele>503</ele>
						<time>2022-06-15T19:09:32Z</time>
					</trkpt>
					<trkpt lat="45.684440" lon="4.319900">
						<ele>501</ele>
						<time>2022-06-15T19:09:50Z</time>
					</trkpt>
					<trkpt lat="45.684770" lon="4.319810">
						<ele>499</ele>
						<time>2022-06-15T19:10:34Z</time>
					</trkpt>
					<trkpt lat="45.685210" lon="4.319570">
						<ele>499</ele>
						<time>2022-06-15T19:11:37Z</time>
					</trkpt>
					<trkpt lat="45.685480" lon="4.319550">
						<ele>498</ele>
						<time>2022-06-15T19:12:13Z</time>
					</trkpt>
					<trkpt lat="45.685620" lon="4.319580">
						<ele>497</ele>
						<time>2022-06-15T19:12:32Z</time>
					</trkpt>
					<trkpt lat="45.685720" lon="4.319640">
						<ele>495</ele>
						<time>2022-06-15T19:12:47Z</time>
					</trkpt>
					<trkpt lat="45.686270" lon="4.319720">
						<ele>499</ele>
						<time>2022-06-15T19:14:00Z</time>
					</trkpt>
					<trkpt lat="45.686660" lon="4.320130">
						<ele>501</ele>
						<time>2022-06-15T19:15:05Z</time>
					</trkpt>
					<trkpt lat="45.686660" lon="4.320860">
						<ele>499</ele>
						<time>2022-06-15T19:16:13Z</time>
					</trkpt>
					<trkpt lat="45.686090" lon="4.322970">
						<ele>462</ele>
						<time>2022-06-15T19:19:44Z</time>
					</trkpt>
					<trkpt lat="45.686080" lon="4.323020">
						<ele>461</ele>
						<time>2022-06-15T19:19:49Z</time>
					</trkpt>
					<trkpt lat="45.686110" lon="4.323220">
						<ele>458</ele>
						<time>2022-06-15T19:20:08Z</time>
					</trkpt>
					<trkpt lat="45.686120" lon="4.323670">
						<ele>456</ele>
						<time>2022-06-15T19:20:50Z</time>
					</trkpt>
					<trkpt lat="45.686140" lon="4.323890">
						<ele>456</ele>
						<time>2022-06-15T19:21:11Z</time>
					</trkpt>
					<trkpt lat="45.686470" lon="4.325090">
						<ele>465</ele>
						<time>2022-06-15T19:23:11Z</time>
					</trkpt>
					<trkpt lat="45.687250" lon="4.326640">
						<ele>470</ele>
						<time>2022-06-15T19:26:09Z</time>
					</trkpt>
					<trkpt lat="45.687800" lon="4.328020">
						<ele>471</ele>
						<time>2022-06-15T19:28:37Z</time>
					</trkpt>
					<trkpt lat="45.687870" lon="4.328300">
						<ele>471</ele>
						<time>2022-06-15T19:29:05Z</time>
					</trkpt>
					<trkpt lat="45.687970" lon="4.328960">
						<ele>468</ele>
						<time>2022-06-15T19:30:08Z</time>
					</trkpt>
					<trkpt lat="45.688230" lon="4.329610">
						<ele>470</ele>
						<time>2022-06-15T19:31:17Z</time>
					</trkpt>
					<trkpt lat="45.688270" lon="4.329840">
						<ele>469</ele>
						<time>2022-06-15T19:31:40Z</time>
					</trkpt>
					<trkpt lat="45.688290" lon="4.330120">
						<ele>469</ele>
						<time>2022-06-15T19:32:06Z</time>
					</trkpt>
					<trkpt lat="45.688230" lon="4.330750">
						<ele>470</ele>
						<time>2022-06-15T19:33:05Z</time>
					</trkpt>
					<trkpt lat="45.688870" lon="4.331870">
						<ele>494</ele>
						<time>2022-06-15T19:35:20Z</time>
					</trkpt>
					<trkpt lat="45.689230" lon="4.332370">
						<ele>502</ele>
						<time>2022-06-15T19:36:27Z</time>
					</trkpt>
					<trkpt lat="45.688920" lon="4.332950">
						<ele>501</ele>
						<time>2022-06-15T19:37:35Z</time>
					</trkpt>
					<trkpt lat="45.688940" lon="4.333430">
						<ele>505</ele>
						<time>2022-06-15T19:38:20Z</time>
					</trkpt>
					<trkpt lat="45.689290" lon="4.333730">
						<ele>511</ele>
						<time>2022-06-15T19:39:14Z</time>
					</trkpt>
					<trkpt lat="45.690890" lon="4.335780">
						<ele>539</ele>
						<time>2022-06-15T19:44:01Z</time>
					</trkpt>
					<trkpt lat="45.691850" lon="4.336590">
						<ele>549</ele>
						<time>2022-06-15T19:46:29Z</time>
					</trkpt>
					<trkpt lat="45.692170" lon="4.337010">
						<ele>552</ele>
						<time>2022-06-15T19:47:27Z</time>
					</trkpt>
					<trkpt lat="45.693980" lon="4.338500">
						<ele>551</ele>
						<time>2022-06-15T19:52:06Z</time>
					</trkpt>
					<trkpt lat="45.694770" lon="4.339340">
						<ele>545</ele>
						<time>2022-06-15T19:54:17Z</time>
					</trkpt>
					<trkpt lat="45.695070" lon="4.339690">
						<ele>543</ele>
						<time>2022-06-15T19:55:09Z</time>
					</trkpt>
					<trkpt lat="45.695540" lon="4.340550">
						<ele>542</ele>
						<time>2022-06-15T19:56:51Z</time>
					</trkpt>
					<trkpt lat="45.695750" lon="4.340760">
						<ele>543</ele>
						<time>2022-06-15T19:57:25Z</time>
					</trkpt>
					<trkpt lat="45.695850" lon="4.340890">
						<ele>544</ele>
						<time>2022-06-15T19:57:43Z</time>
					</trkpt>
					<trkpt lat="45.695940" lon="4.340960">
						<ele>543</ele>
						<time>2022-06-15T19:57:57Z</time>
					</trkpt>
					<trkpt lat="45.696090" lon="4.340900">
						<ele>543</ele>
						<time>2022-06-15T19:58:17Z</time>
					</trkpt>
					<trkpt lat="45.696050" lon="4.340690">
						<ele>543</ele>
						<time>2022-06-15T19:58:38Z</time>
					</trkpt>
					<trkpt lat="45.696020" lon="4.340310">
						<ele>542</ele>
						<time>2022-06-15T19:59:13Z</time>
					</trkpt>
					<trkpt lat="45.696010" lon="4.339980">
						<ele>541</ele>
						<time>2022-06-15T19:59:44Z</time>
					</trkpt>
					<trkpt lat="45.696020" lon="4.339710">
						<ele>540</ele>
						<time>2022-06-15T20:00:09Z</time>
					</trkpt>
					<trkpt lat="45.695980" lon="4.338900">
						<ele>539</ele>
						<time>2022-06-15T20:01:25Z</time>
					</trkpt>
					<trkpt lat="45.696010" lon="4.338610">
						<ele>538</ele>
						<time>2022-06-15T20:01:52Z</time>
					</trkpt>
					<trkpt lat="45.696010" lon="4.338270">
						<ele>537</ele>
						<time>2022-06-15T20:02:24Z</time>
					</trkpt>
					<trkpt lat="45.695950" lon="4.337600">
						<ele>535</ele>
						<time>2022-06-15T20:03:27Z</time>
					</trkpt>
					<trkpt lat="45.696020" lon="4.337380">
						<ele>534</ele>
						<time>2022-06-15T20:03:50Z</time>
					</trkpt>
					<trkpt lat="45.696160" lon="4.337010">
						<ele>533</ele>
						<time>2022-06-15T20:04:29Z</time>
					</trkpt>
					<trkpt lat="45.696880" lon="4.335480">
						<ele>526</ele>
						<time>2022-06-15T20:07:21Z</time>
					</trkpt>
					<trkpt lat="45.697350" lon="4.336240">
						<ele>526</ele>
						<time>2022-06-15T20:08:55Z</time>
					</trkpt>
					<trkpt lat="45.697660" lon="4.336790">
						<ele>527</ele>
						<time>2022-06-15T20:10:01Z</time>
					</trkpt>
					<trkpt lat="45.698420" lon="4.338440">
						<ele>526</ele>
						<time>2022-06-15T20:13:05Z</time>
					</trkpt>
					<trkpt lat="45.698600" lon="4.339110">
						<ele>524</ele>
						<time>2022-06-15T20:14:12Z</time>
					</trkpt>
					<trkpt lat="45.699120" lon="4.339590">
						<ele>524</ele>
						<time>2022-06-15T20:15:35Z</time>
					</trkpt>
					<trkpt lat="45.700810" lon="4.340420">
						<ele>523</ele>
						<time>2022-06-15T20:19:33Z</time>
					</trkpt>
					<trkpt lat="45.701110" lon="4.340730">
						<ele>522</ele>
						<time>2022-06-15T20:20:23Z</time>
					</trkpt>
					<trkpt lat="45.702120" lon="4.340790">
						<ele>516</ele>
						<time>2022-06-15T20:22:38Z</time>
					</trkpt>
					<trkpt lat="45.702390" lon="4.340670">
						<ele>514</ele>
						<time>2022-06-15T20:23:15Z</time>
					</trkpt>
					<trkpt lat="45.702570" lon="4.340660">
						<ele>513</ele>
						<time>2022-06-15T20:23:39Z</time>
					</trkpt>
					<trkpt lat="45.702750" lon="4.340730">
						<ele>510</ele>
						<time>2022-06-15T20:24:04Z</time>
					</trkpt>
					<trkpt lat="45.703090" lon="4.340980">
						<ele>506</ele>
						<time>2022-06-15T20:24:55Z</time>
					</trkpt>
					<trkpt lat="45.703610" lon="4.341490">
						<ele>500</ele>
						<time>2022-06-15T20:26:19Z</time>
					</trkpt>
					<trkpt lat="45.704030" lon="4.341920">
						<ele>498</ele>
						<time>2022-06-15T20:27:28Z</time>
					</trkpt>
					<trkpt lat="45.704490" lon="4.342180">
						<ele>502</ele>
						<time>2022-06-15T20:28:34Z</time>
					</trkpt>
					<trkpt lat="45.704900" lon="4.342350">
						<ele>507</ele>
						<time>2022-06-15T20:29:31Z</time>
					</trkpt>
					<trkpt lat="45.706040" lon="4.343000">
						<ele>518</ele>
						<time>2022-06-15T20:32:15Z</time>
					</trkpt>
					<trkpt lat="45.706180" lon="4.343120">
						<ele>519</ele>
						<time>2022-06-15T20:32:37Z</time>
					</trkpt>
					<trkpt lat="45.706100" lon="4.343160">
						<ele>519</ele>
						<time>2022-06-15T20:32:48Z</time>
					</trkpt>
					<trkpt lat="45.705970" lon="4.343220">
						<ele>519</ele>
						<time>2022-06-15T20:33:06Z</time>
					</trkpt>
					<trkpt lat="45.705870" lon="4.343300">
						<ele>520</ele>
						<time>2022-06-15T20:33:22Z</time>
					</trkpt>
					<trkpt lat="45.705800" lon="4.343410">
						<ele>520</ele>
						<time>2022-06-15T20:33:35Z</time>
					</trkpt>
					<trkpt lat="45.705700" lon="4.343750">
						<ele>521</ele>
						<time>2022-06-15T20:34:10Z</time>
					</trkpt>
					<trkpt lat="45.705680" lon="4.343900">
						<ele>521</ele>
						<time>2022-06-15T20:34:24Z</time>
					</trkpt>
					<trkpt lat="45.705690" lon="4.344960">
						<ele>523</ele>
						<time>2022-06-15T20:36:03Z</time>
					</trkpt>
					<trkpt lat="45.705710" lon="4.345240">
						<ele>524</ele>
						<time>2022-06-15T20:36:29Z</time>
					</trkpt>
					<trkpt lat="45.705750" lon="4.345520">
						<ele>525</ele>
						<time>2022-06-15T20:36:56Z</time>
					</trkpt>
					<trkpt lat="45.705900" lon="4.346060">
						<ele>528</ele>
						<time>2022-06-15T20:37:50Z</time>
					</trkpt>
					<trkpt lat="45.705900" lon="4.346160">
						<ele>529</ele>
						<time>2022-06-15T20:37:59Z</time>
					</trkpt>
					<trkpt lat="45.705840" lon="4.346360">
						<ele>530</ele>
						<time>2022-06-15T20:38:19Z</time>
					</trkpt>
					<trkpt lat="45.705800" lon="4.346450">
						<ele>530</ele>
						<time>2022-06-15T20:38:29Z</time>
					</trkpt>
					<trkpt lat="45.705490" lon="4.346670">
						<ele>531</ele>
						<time>2022-06-15T20:39:16Z</time>
					</trkpt>
					<trkpt lat="45.705390" lon="4.346790">
						<ele>532</ele>
						<time>2022-06-15T20:39:33Z</time>
					</trkpt>
					<trkpt lat="45.705300" lon="4.347000">
						<ele>534</ele>
						<time>2022-06-15T20:39:56Z</time>
					</trkpt>
					<trkpt lat="45.705300" lon="4.347050">
						<ele>534</ele>
						<time>2022-06-15T20:40:01Z</time>
					</trkpt>
					<trkpt lat="45.704850" lon="4.347220">
						<ele>535</ele>
						<time>2022-06-15T20:41:03Z</time>
					</trkpt>
					<trkpt lat="45.704720" lon="4.347380">
						<ele>535</ele>
						<time>2022-06-15T20:41:26Z</time>
					</trkpt>
					<trkpt lat="45.704680" lon="4.347490">
						<ele>536</ele>
						<time>2022-06-15T20:41:37Z</time>
					</trkpt>
					<trkpt lat="45.704670" lon="4.347610">
						<ele>537</ele>
						<time>2022-06-15T20:41:48Z</time>
					</trkpt>
					<trkpt lat="45.704740" lon="4.347860">
						<ele>539</ele>
						<time>2022-06-15T20:42:13Z</time>
					</trkpt>
					<trkpt lat="45.704950" lon="4.348310">
						<ele>544</ele>
						<time>2022-06-15T20:43:04Z</time>
					</trkpt>
					<trkpt lat="45.705030" lon="4.348560">
						<ele>548</ele>
						<time>2022-06-15T20:43:30Z</time>
					</trkpt>
					<trkpt lat="45.705060" lon="4.348740">
						<ele>550</ele>
						<time>2022-06-15T20:43:47Z</time>
					</trkpt>
					<trkpt lat="45.705150" lon="4.350150">
						<ele>561</ele>
						<time>2022-06-15T20:45:59Z</time>
					</trkpt>
					<trkpt lat="45.705320" lon="4.351020">
						<ele>561</ele>
						<time>2022-06-15T20:47:23Z</time>
					</trkpt>
					<trkpt lat="45.705320" lon="4.351520">
						<ele>560</ele>
						<time>2022-06-15T20:48:10Z</time>
					</trkpt>
					<trkpt lat="45.705120" lon="4.352030">
						<ele>561</ele>
						<time>2022-06-15T20:49:04Z</time>
					</trkpt>
					<trkpt lat="45.705090" lon="4.352420">
						<ele>562</ele>
						<time>2022-06-15T20:49:41Z</time>
					</trkpt>
					<trkpt lat="45.705020" lon="4.352920">
						<ele>564</ele>
						<time>2022-06-15T20:50:28Z</time>
					</trkpt>
					<trkpt lat="45.704960" lon="4.353620">
						<ele>568</ele>
						<time>2022-06-15T20:51:34Z</time>
					</trkpt>
					<trkpt lat="45.705010" lon="4.354060">
						<ele>573</ele>
						<time>2022-06-15T20:52:15Z</time>
					</trkpt>
					<trkpt lat="45.705100" lon="4.354490">
						<ele>576</ele>
						<time>2022-06-15T20:52:57Z</time>
					</trkpt>
					<trkpt lat="45.705330" lon="4.355330">
						<ele>580</ele>
						<time>2022-06-15T20:54:21Z</time>
					</trkpt>
					<trkpt lat="45.705560" lon="4.355870">
						<ele>582</ele>
						<time>2022-06-15T20:55:20Z</time>
					</trkpt>
					<trkpt lat="45.705630" lon="4.355990">
						<ele>582</ele>
						<time>2022-06-15T20:55:35Z</time>
					</trkpt>
					<trkpt lat="45.705690" lon="4.356180">
						<ele>582</ele>
						<time>2022-06-15T20:55:54Z</time>
					</trkpt>
					<trkpt lat="45.705700" lon="4.356320">
						<ele>581</ele>
						<time>2022-06-15T20:56:07Z</time>
					</trkpt>
					<trkpt lat="45.705680" lon="4.356450">
						<ele>581</ele>
						<time>2022-06-15T20:56:20Z</time>
					</trkpt>
					<trkpt lat="45.705590" lon="4.356610">
						<ele>580</ele>
						<time>2022-06-15T20:56:39Z</time>
					</trkpt>
					<trkpt lat="45.705170" lon="4.357150">
						<ele>578</ele>
						<time>2022-06-15T20:57:54Z</time>
					</trkpt>
					<trkpt lat="45.705080" lon="4.357310">
						<ele>578</ele>
						<time>2022-06-15T20:58:13Z</time>
					</trkpt>
					<trkpt lat="45.704720" lon="4.357750">
						<ele>578</ele>
						<time>2022-06-15T20:59:17Z</time>
					</trkpt>
					<trkpt lat="45.704040" lon="4.358640">
						<ele>581</ele>
						<time>2022-06-15T21:01:19Z</time>
					</trkpt>
					<trkpt lat="45.703990" lon="4.358690">
						<ele>581</ele>
						<time>2022-06-15T21:01:28Z</time>
					</trkpt>
					<trkpt lat="45.703740" lon="4.358580">
						<ele>581</ele>
						<time>2022-06-15T21:02:03Z</time>
					</trkpt>
					<trkpt lat="45.703520" lon="4.358450">
						<ele>580</ele>
						<time>2022-06-15T21:02:34Z</time>
					</trkpt>
					<trkpt lat="45.703010" lon="4.358250">
						<ele>581</ele>
						<time>2022-06-15T21:03:45Z</time>
					</trkpt>
					<trkpt lat="45.702600" lon="4.358250">
						<ele>582</ele>
						<time>2022-06-15T21:04:40Z</time>
					</trkpt>
					<trkpt lat="45.702360" lon="4.358270">
						<ele>582</ele>
						<time>2022-06-15T21:05:12Z</time>
					</trkpt>
					<trkpt lat="45.702040" lon="4.358350">
						<ele>581</ele>
						<time>2022-06-15T21:05:55Z</time>
					</trkpt>
					<trkpt lat="45.701860" lon="4.358370">
						<ele>581</ele>
						<time>2022-06-15T21:06:19Z</time>
					</trkpt>
					<trkpt lat="45.700800" lon="4.358440">
						<ele>576</ele>
						<time>2022-06-15T21:08:41Z</time>
					</trkpt>
					<trkpt lat="45.699970" lon="4.358470">
						<ele>573</ele>
						<time>2022-06-15T21:10:31Z</time>
					</trkpt>
					<trkpt lat="45.699290" lon="4.358390">
						<ele>571</ele>
						<time>2022-06-15T21:12:03Z</time>
					</trkpt>
					<trkpt lat="45.699260" lon="4.358360">
						<ele>570</ele>
						<time>2022-06-15T21:12:07Z</time>
					</trkpt>
					<trkpt lat="45.697870" lon="4.358480">
						<ele>570</ele>
						<time>2022-06-15T21:15:13Z</time>
					</trkpt>
					<trkpt lat="45.696430" lon="4.357740">
						<ele>562</ele>
						<time>2022-06-15T21:18:37Z</time>
					</trkpt>
					<trkpt lat="45.696220" lon="4.357490">
						<ele>559</ele>
						<time>2022-06-15T21:19:14Z</time>
					</trkpt>
					<trkpt lat="45.695810" lon="4.357220">
						<ele>554</ele>
						<time>2022-06-15T21:20:14Z</time>
					</trkpt>
					<trkpt lat="45.695690" lon="4.356810">
						<ele>550</ele>
						<time>2022-06-15T21:20:56Z</time>
					</trkpt>
					<trkpt lat="45.694320" lon="4.355970">
						<ele>534</ele>
						<time>2022-06-15T21:24:14Z</time>
					</trkpt>
					<trkpt lat="45.694030" lon="4.355560">
						<ele>529</ele>
						<time>2022-06-15T21:25:09Z</time>
					</trkpt>
					<trkpt lat="45.693580" lon="4.355250">
						<ele>522</ele>
						<time>2022-06-15T21:26:15Z</time>
					</trkpt>
					<trkpt lat="45.693150" lon="4.354710">
						<ele>512</ele>
						<time>2022-06-15T21:27:32Z</time>
					</trkpt>
					<trkpt lat="45.692950" lon="4.354830">
						<ele>509</ele>
						<time>2022-06-15T21:28:01Z</time>
					</trkpt>
					<trkpt lat="45.692860" lon="4.354940">
						<ele>508</ele>
						<time>2022-06-15T21:28:16Z</time>
					</trkpt>
					<trkpt lat="45.692790" lon="4.355130">
						<ele>507</ele>
						<time>2022-06-15T21:28:37Z</time>
					</trkpt>
					<trkpt lat="45.692760" lon="4.355410">
						<ele>506</ele>
						<time>2022-06-15T21:29:03Z</time>
					</trkpt>
					<trkpt lat="45.692710" lon="4.355570">
						<ele>505</ele>
						<time>2022-06-15T21:29:19Z</time>
					</trkpt>
					<trkpt lat="45.692630" lon="4.356060">
						<ele>502</ele>
						<time>2022-06-15T21:30:06Z</time>
					</trkpt>
					<trkpt lat="45.692590" lon="4.356160">
						<ele>500</ele>
						<time>2022-06-15T21:30:17Z</time>
					</trkpt>
					<trkpt lat="45.692540" lon="4.356340">
						<ele>499</ele>
						<time>2022-06-15T21:30:35Z</time>
					</trkpt>
					<trkpt lat="45.692460" lon="4.356390">
						<ele>498</ele>
						<time>2022-06-15T21:30:47Z</time>
					</trkpt>
					<trkpt lat="45.692290" lon="4.356550">
						<ele>498</ele>
						<time>2022-06-15T21:31:14Z</time>
					</trkpt>
					<trkpt lat="45.692230" lon="4.356570">
						<ele>498</ele>
						<time>2022-06-15T21:31:22Z</time>
					</trkpt>
					<trkpt lat="45.692060" lon="4.356590">
						<ele>498</ele>
						<time>2022-06-15T21:31:45Z</time>
					</trkpt>
					<trkpt lat="45.691850" lon="4.356510">
						<ele>498</ele>
						<time>2022-06-15T21:32:14Z</time>
					</trkpt>
					<trkpt lat="45.691440" lon="4.356220">
						<ele>502</ele>
						<time>2022-06-15T21:33:15Z</time>
					</trkpt>
					<trkpt lat="45.691290" lon="4.356030">
						<ele>503</ele>
						<time>2022-06-15T21:33:42Z</time>
					</trkpt>
					<trkpt lat="45.690940" lon="4.355160">
						<ele>505</ele>
						<time>2022-06-15T21:35:15Z</time>
					</trkpt>
					<trkpt lat="45.690680" lon="4.354720">
						<ele>510</ele>
						<time>2022-06-15T21:36:09Z</time>
					</trkpt>
					<trkpt lat="45.690650" lon="4.354640">
						<ele>511</ele>
						<time>2022-06-15T21:36:17Z</time>
					</trkpt>
					<trkpt lat="45.690570" lon="4.354590">
						<ele>512</ele>
						<time>2022-06-15T21:36:29Z</time>
					</trkpt>
					<trkpt lat="45.690510" lon="4.354620">
						<ele>513</ele>
						<time>2022-06-15T21:36:37Z</time>
					</trkpt>
					<trkpt lat="45.690440" lon="4.353760">
						<ele>520</ele>
						<time>2022-06-15T21:37:58Z</time>
					</trkpt>
					<trkpt lat="45.690700" lon="4.352230">
						<ele>530</ele>
						<time>2022-06-15T21:40:25Z</time>
					</trkpt>
					<trkpt lat="45.690490" lon="4.352420">
						<ele>535</ele>
						<time>2022-06-15T21:40:58Z</time>
					</trkpt>
					<trkpt lat="45.690080" lon="4.352690">
						<ele>543</ele>
						<time>2022-06-15T21:41:58Z</time>
					</trkpt>
					<trkpt lat="45.689890" lon="4.352900">
						<ele>543</ele>
						<time>2022-06-15T21:42:30Z</time>
					</trkpt>
					<trkpt lat="45.689610" lon="4.352870">
						<ele>547</ele>
						<time>2022-06-15T21:43:08Z</time>
					</trkpt>
					<trkpt lat="45.689350" lon="4.352900">
						<ele>549</ele>
						<time>2022-06-15T21:43:43Z</time>
					</trkpt>
					<trkpt lat="45.689190" lon="4.352800">
						<ele>552</ele>
						<time>2022-06-15T21:44:06Z</time>
					</trkpt>
					<trkpt lat="45.689080" lon="4.352690">
						<ele>553</ele>
						<time>2022-06-15T21:44:24Z</time>
					</trkpt>
					<trkpt lat="45.689020" lon="4.352670">
						<ele>552</ele>
						<time>2022-06-15T21:44:32Z</time>
					</trkpt>
					<trkpt lat="45.689000" lon="4.352760">
						<ele>551</ele>
						<time>2022-06-15T21:44:41Z</time>
					</trkpt>
					<trkpt lat="45.689000" lon="4.352750">
						<ele>552</ele>
						<time>2022-06-15T21:44:42Z</time>
					</trkpt>
					</trkseg>
				</trk>
			</gpx>